sensor_id;sensor_type;location;lat;lon;timestamp;temperature;humidity
15343;DHT22;7771;48.478;8.936;2024-01-15T00:00:16;1.10;99.90
15343;DHT22;7771;48.478;8.936;2024-01-15T00:02:44;1.10;99.90
15343;DHT22;7771;48.478;8.936;2024-01-15T00:05:10;1.10;99.90
15343;DHT22;7771;48.478;8.936;2024-01-15T00:07:39;1.20;99.90
15343;DHT22;7771;48.478;8.936;2024-01-15T00:10:06;1.20;99.90
15343;DHT22;7771;48.478;8.936;2024-01-15T00:12:33;1.20;99.90
15343;DHT22;7771;48.478;8.936;2024-01-15T00:15:00;1.20;99.90
15343;DHT22;7771;48.478;8.936;2024-01-15T00:17:27;1.20;99.90
15343;DHT22;7771;48.478;8.936;2024-01-15T00:19:54;1.20;99.90
15343;DHT22;7771;48.478;8.936;2024-01-15T00:22:21;1.30;99.90
15343;DHT22;7771;48.478;8.936;2024-01-15T00:24:48;1.30;99.90
15343;DHT22;7771;48.478;8.936;2024-01-15T00:27:15;1.30;99.90
15343;DHT22;7771;48.478;8.936;2024-01-15T00:29:42;1.30;99.90
15343;DHT22;7771;48.478;8.936;2024-01-15T00:32:09;1.30;99.90
15343;DHT22;7771;48.478;8.936;2024-01-15T00:34:35;1.30;99.90
15343;DHT22;7771;48.478;8.936;2024-01-15T00:37:04;1.30;99.90
15343;DHT22;7771;48.478;8.936;2024-01-15T00:39:31;1.30;99.90
15343;DHT22;7771;48.478;8.936;2024-01-15T00:44:27;1.30;99.90
15343;DHT22;7771;48.478;8.936;2024-01-15T00:46:55;1.30;99.90
15343;DHT22;7771;48.478;8.936;2024-01-15T00:49:22;1.30;99.90
15343;DHT22;7771;48.478;8.936;2024-01-15T00:51:49;1.40;99.90
15343;DHT22;7771;48.478;8.936;2024-01-15T00:54:16;1.40;99.90
15343;DHT22;7771;48.478;8.936;2024-01-15T00:59:11;1.40;99.90
15343;DHT22;7771;48.478;8.936;2024-01-15T01:01:38;1.40;99.90
15343;DHT22;7771;48.478;8.936;2024-01-15T01:04:05;1.40;99.90
15343;DHT22;7771;48.478;8.936;2024-01-15T01:06:33;1.40;99.90
15343;DHT22;7771;48.478;8.936;2024-01-15T01:09:00;1.40;99.90
15343;DHT22;7771;48.478;8.936;2024-01-15T01:11:26;1.40;99.90
15343;DHT22;7771;48.478;8.936;2024-01-15T01:13:54;1.40;99.90
15343;DHT22;7771;48.478;8.936;2024-01-15T01:16:20;1.40;99.90
15343;DHT22;7771;48.478;8.936;2024-01-15T01:18:48;1.30;99.90
15343;DHT22;7771;48.478;8.936;2024-01-15T01:21:14;1.30;99.90
15343;DHT22;7771;48.478;8.936;2024-01-15T01:23:42;1.30;99.90
15343;DHT22;7771;48.478;8.936;2024-01-15T01:26:08;1.30;99.90
15343;DHT22;7771;48.478;8.936;2024-01-15T01:28:35;1.40;99.90
15343;DHT22;7771;48.478;8.936;2024-01-15T01:33:30;1.40;99.90
15343;DHT22;7771;48.478;8.936;2024-01-15T01:35:58;1.40;99.90
15343;DHT22;7771;48.478;8.936;2024-01-15T01:38:25;1.40;99.90
15343;DHT22;7771;48.478;8.936;2024-01-15T01:40:52;1.40;99.90
15343;DHT22;7771;48.478;8.936;2024-01-15T01:43:19;1.40;99.90
15343;DHT22;7771;48.478;8.936;2024-01-15T01:45:46;1.40;99.90
15343;DHT22;7771;48.478;8.936;2024-01-15T01:48:14;1.40;99.90
15343;DHT22;7771;48.478;8.936;2024-01-15T01:50:41;1.50;99.90
15343;DHT22;7771;48.478;8.936;2024-01-15T01:53:08;1.50;99.90
15343;DHT22;7771;48.478;8.936;2024-01-15T01:55:35;1.50;99.90
15343;DHT22;7771;48.478;8.936;2024-01-15T02:00:31;1.40;99.90
15343;DHT22;7771;48.478;8.936;2024-01-15T02:02:59;1.50;99.90
15343;DHT22;7771;48.478;8.936;2024-01-15T02:07:53;1.50;99.90
15343;DHT22;7771;48.478;8.936;2024-01-15T02:10:21;1.50;99.90
15343;DHT22;7771;48.478;8.936;2024-01-15T02:12:49;1.60;99.90
15343;DHT22;7771;48.478;8.936;2024-01-15T02:15:15;1.60;99.90
15343;DHT22;7771;48.478;8.936;2024-01-15T02:18:05;1.50;99.90
15343;DHT22;7771;48.478;8.936;2024-01-15T02:20:31;1.60;99.90
15343;DHT22;7771;48.478;8.936;2024-01-15T02:23:03;1.50;99.90
15343;DHT22;7771;48.478;8.936;2024-01-15T02:25:28;1.50;99.90
15343;DHT22;7771;48.478;8.936;2024-01-15T02:27:55;1.50;99.90
15343;DHT22;7771;48.478;8.936;2024-01-15T02:32:50;1.60;99.90
15343;DHT22;7771;48.478;8.936;2024-01-15T02:35:18;1.60;99.90
15343;DHT22;7771;48.478;8.936;2024-01-15T02:37:44;1.60;99.90
15343;DHT22;7771;48.478;8.936;2024-01-15T02:40:11;1.60;99.90
15343;DHT22;7771;48.478;8.936;2024-01-15T02:42:38;1.50;99.90
15343;DHT22;7771;48.478;8.936;2024-01-15T02:45:05;1.50;99.90
15343;DHT22;7771;48.478;8.936;2024-01-15T02:47:32;1.50;99.90
15343;DHT22;7771;48.478;8.936;2024-01-15T02:49:58;1.60;99.90
15343;DHT22;7771;48.478;8.936;2024-01-15T02:52:26;1.50;99.90
15343;DHT22;7771;48.478;8.936;2024-01-15T02:54:54;1.50;99.90
15343;DHT22;7771;48.478;8.936;2024-01-15T02:59:49;1.50;99.90
15343;DHT22;7771;48.478;8.936;2024-01-15T03:02:16;1.50;99.90
15343;DHT22;7771;48.478;8.936;2024-01-15T03:04:44;1.50;99.90
15343;DHT22;7771;48.478;8.936;2024-01-15T03:07:11;1.50;99.90
15343;DHT22;7771;48.478;8.936;2024-01-15T03:09:38;1.50;99.90
15343;DHT22;7771;48.478;8.936;2024-01-15T03:12:06;1.50;99.90
15343;DHT22;7771;48.478;8.936;2024-01-15T03:14:32;1.50;99.90
15343;DHT22;7771;48.478;8.936;2024-01-15T03:17:01;1.50;99.90
15343;DHT22;7771;48.478;8.936;2024-01-15T03:19:27;1.60;99.90
15343;DHT22;7771;48.478;8.936;2024-01-15T03:21:54;1.60;99.90
15343;DHT22;7771;48.478;8.936;2024-01-15T03:24:23;1.60;99.90
15343;DHT22;7771;48.478;8.936;2024-01-15T03:26:49;1.60;99.90
15343;DHT22;7771;48.478;8.936;2024-01-15T03:29:17;1.60;99.90
15343;DHT22;7771;48.478;8.936;2024-01-15T03:31:44;1.60;99.90
15343;DHT22;7771;48.478;8.936;2024-01-15T03:34:11;1.60;99.90
15343;DHT22;7771;48.478;8.936;2024-01-15T03:36:39;1.60;99.90
15343;DHT22;7771;48.478;8.936;2024-01-15T03:39:05;1.60;99.90
15343;DHT22;7771;48.478;8.936;2024-01-15T03:41:32;1.70;99.90
15343;DHT22;7771;48.478;8.936;2024-01-15T03:43:59;1.70;99.90
15343;DHT22;7771;48.478;8.936;2024-01-15T03:46:26;1.70;99.90
15343;DHT22;7771;48.478;8.936;2024-01-15T03:48:53;1.70;99.90
15343;DHT22;7771;48.478;8.936;2024-01-15T03:51:20;1.70;99.90
15343;DHT22;7771;48.478;8.936;2024-01-15T03:53:47;1.80;99.90
15343;DHT22;7771;48.478;8.936;2024-01-15T03:56:14;1.80;99.90
15343;DHT22;7771;48.478;8.936;2024-01-15T03:58:42;1.80;99.90
15343;DHT22;7771;48.478;8.936;2024-01-15T04:01:12;1.80;99.90
15343;DHT22;7771;48.478;8.936;2024-01-15T04:06:06;1.80;99.90
15343;DHT22;7771;48.478;8.936;2024-01-15T04:08:34;1.80;99.90
15343;DHT22;7771;48.478;8.936;2024-01-15T04:11:00;1.80;99.90
15343;DHT22;7771;48.478;8.936;2024-01-15T04:13:28;1.80;99.90
15343;DHT22;7771;48.478;8.936;2024-01-15T04:15:54;1.80;99.90
15343;DHT22;7771;48.478;8.936;2024-01-15T04:18:22;1.90;99.90
15343;DHT22;7771;48.478;8.936;2024-01-15T04:20:49;1.90;99.90
15343;DHT22;7771;48.478;8.936;2024-01-15T04:23:16;1.90;99.90
15343;DHT22;7771;48.478;8.936;2024-01-15T04:25:44;1.90;99.90
15343;DHT22;7771;48.478;8.936;2024-01-15T04:28:11;1.90;99.90
15343;DHT22;7771;48.478;8.936;2024-01-15T04:30:38;1.90;99.90
15343;DHT22;7771;48.478;8.936;2024-01-15T04:33:05;1.90;99.90
15343;DHT22;7771;48.478;8.936;2024-01-15T04:35:33;1.90;99.90
15343;DHT22;7771;48.478;8.936;2024-01-15T04:38:01;1.90;99.90
15343;DHT22;7771;48.478;8.936;2024-01-15T04:40:28;1.90;99.90
15343;DHT22;7771;48.478;8.936;2024-01-15T04:47:51;2.00;99.90
15343;DHT22;7771;48.478;8.936;2024-01-15T04:50:18;2.00;99.90
15343;DHT22;7771;48.478;8.936;2024-01-15T04:52:45;2.00;99.90
15343;DHT22;7771;48.478;8.936;2024-01-15T04:55:13;2.00;99.90
15343;DHT22;7771;48.478;8.936;2024-01-15T04:57:40;2.00;99.90
15343;DHT22;7771;48.478;8.936;2024-01-15T05:02:35;2.00;99.90
15343;DHT22;7771;48.478;8.936;2024-01-15T05:05:02;2.00;99.90
15343;DHT22;7771;48.478;8.936;2024-01-15T05:07:29;2.00;99.90
15343;DHT22;7771;48.478;8.936;2024-01-15T05:09:56;2.00;99.90
15343;DHT22;7771;48.478;8.936;2024-01-15T05:12:24;2.00;99.90
15343;DHT22;7771;48.478;8.936;2024-01-15T05:14:50;2.00;99.90
15343;DHT22;7771;48.478;8.936;2024-01-15T05:17:18;2.00;99.90
15343;DHT22;7771;48.478;8.936;2024-01-15T05:19:44;2.00;99.90
15343;DHT22;7771;48.478;8.936;2024-01-15T05:22:11;2.00;99.90
15343;DHT22;7771;48.478;8.936;2024-01-15T05:24:38;2.00;99.90
15343;DHT22;7771;48.478;8.936;2024-01-15T05:27:06;2.00;99.90
15343;DHT22;7771;48.478;8.936;2024-01-15T05:29:32;2.00;99.90
15343;DHT22;7771;48.478;8.936;2024-01-15T05:32:00;1.90;99.90
15343;DHT22;7771;48.478;8.936;2024-01-15T05:34:28;1.90;99.90
15343;DHT22;7771;48.478;8.936;2024-01-15T05:36:54;2.00;99.90
15343;DHT22;7771;48.478;8.936;2024-01-15T05:39:21;1.90;99.90
15343;DHT22;7771;48.478;8.936;2024-01-15T05:41:48;1.90;99.90
15343;DHT22;7771;48.478;8.936;2024-01-15T05:44:16;1.90;99.90
15343;DHT22;7771;48.478;8.936;2024-01-15T05:46:42;1.90;99.90
15343;DHT22;7771;48.478;8.936;2024-01-15T05:51:38;1.90;99.90
15343;DHT22;7771;48.478;8.936;2024-01-15T05:54:05;1.90;99.90
15343;DHT22;7771;48.478;8.936;2024-01-15T05:56:32;2.00;99.90
15343;DHT22;7771;48.478;8.936;2024-01-15T06:03:55;2.00;99.90
15343;DHT22;7771;48.478;8.936;2024-01-15T06:08:51;2.00;99.90
15343;DHT22;7771;48.478;8.936;2024-01-15T06:13:45;2.00;99.90
15343;DHT22;7771;48.478;8.936;2024-01-15T06:16:13;2.00;99.90
15343;DHT22;7771;48.478;8.936;2024-01-15T06:21:07;2.00;99.90
15343;DHT22;7771;48.478;8.936;2024-01-15T06:23:34;2.00;99.90
15343;DHT22;7771;48.478;8.936;2024-01-15T06:26:02;2.00;99.90
15343;DHT22;7771;48.478;8.936;2024-01-15T06:28:30;2.00;99.90
15343;DHT22;7771;48.478;8.936;2024-01-15T06:30:57;2.00;99.90
15343;DHT22;7771;48.478;8.936;2024-01-15T06:33:25;2.00;99.90
15343;DHT22;7771;48.478;8.936;2024-01-15T06:35:52;2.00;99.90
15343;DHT22;7771;48.478;8.936;2024-01-15T06:38:19;2.00;99.90
15343;DHT22;7771;48.478;8.936;2024-01-15T06:40:46;2.00;99.90
15343;DHT22;7771;48.478;8.936;2024-01-15T06:45:42;2.00;99.90
15343;DHT22;7771;48.478;8.936;2024-01-15T06:48:09;2.00;99.90
15343;DHT22;7771;48.478;8.936;2024-01-15T06:50:36;2.00;99.90
15343;DHT22;7771;48.478;8.936;2024-01-15T06:53:04;2.00;99.90
15343;DHT22;7771;48.478;8.936;2024-01-15T06:55:30;2.00;99.90
15343;DHT22;7771;48.478;8.936;2024-01-15T06:57:58;2.10;99.90
15343;DHT22;7771;48.478;8.936;2024-01-15T07:00:26;2.10;99.90
15343;DHT22;7771;48.478;8.936;2024-01-15T07:02:52;2.10;99.90
15343;DHT22;7771;48.478;8.936;2024-01-15T07:10:15;2.10;99.90
15343;DHT22;7771;48.478;8.936;2024-01-15T07:12:43;2.10;99.90
15343;DHT22;7771;48.478;8.936;2024-01-15T07:17:37;2.10;99.90
15343;DHT22;7771;48.478;8.936;2024-01-15T07:22:33;2.10;99.90
15343;DHT22;7771;48.478;8.936;2024-01-15T07:25:00;2.10;99.90
15343;DHT22;7771;48.478;8.936;2024-01-15T07:27:27;2.10;99.90
15343;DHT22;7771;48.478;8.936;2024-01-15T07:34:51;2.10;99.90
15343;DHT22;7771;48.478;8.936;2024-01-15T07:37:18;2.20;99.90
15343;DHT22;7771;48.478;8.936;2024-01-15T07:39:46;2.20;99.90
15343;DHT22;7771;48.478;8.936;2024-01-15T07:42:14;2.20;99.90
15343;DHT22;7771;48.478;8.936;2024-01-15T07:44:41;2.20;99.90
15343;DHT22;7771;48.478;8.936;2024-01-15T07:47:08;2.30;99.90
15343;DHT22;7771;48.478;8.936;2024-01-15T07:49:34;2.30;99.90
15343;DHT22;7771;48.478;8.936;2024-01-15T07:52:02;2.30;99.90
15343;DHT22;7771;48.478;8.936;2024-01-15T07:54:31;2.30;99.90
15343;DHT22;7771;48.478;8.936;2024-01-15T07:56:59;2.30;99.90
15343;DHT22;7771;48.478;8.936;2024-01-15T07:59:26;2.30;99.90
15343;DHT22;7771;48.478;8.936;2024-01-15T08:01:54;2.30;99.90
15343;DHT22;7771;48.478;8.936;2024-01-15T08:04:22;2.40;99.90
15343;DHT22;7771;48.478;8.936;2024-01-15T08:06:49;2.30;99.90
15343;DHT22;7771;48.478;8.936;2024-01-15T08:09:16;2.40;99.90
15343;DHT22;7771;48.478;8.936;2024-01-15T08:11:43;2.40;99.90
15343;DHT22;7771;48.478;8.936;2024-01-15T08:16:38;2.50;99.90
15343;DHT22;7771;48.478;8.936;2024-01-15T08:19:06;2.50;99.90
15343;DHT22;7771;48.478;8.936;2024-01-15T08:21:33;2.60;99.90
15343;DHT22;7771;48.478;8.936;2024-01-15T08:24:00;2.60;99.90
15343;DHT22;7771;48.478;8.936;2024-01-15T08:26:28;2.60;99.90
15343;DHT22;7771;48.478;8.936;2024-01-15T08:28:55;2.60;99.90
15343;DHT22;7771;48.478;8.936;2024-01-15T08:38:47;2.80;99.90
15343;DHT22;7771;48.478;8.936;2024-01-15T08:41:14;2.80;99.90
15343;DHT22;7771;48.478;8.936;2024-01-15T08:43:41;2.90;99.90
15343;DHT22;7771;48.478;8.936;2024-01-15T08:46:08;2.80;99.90
15343;DHT22;7771;48.478;8.936;2024-01-15T08:48:35;2.80;99.90
15343;DHT22;7771;48.478;8.936;2024-01-15T08:53:31;2.90;99.90
15343;DHT22;7771;48.478;8.936;2024-01-15T08:55:59;2.90;99.90
15343;DHT22;7771;48.478;8.936;2024-01-15T08:58:26;2.90;99.90
15343;DHT22;7771;48.478;8.936;2024-01-15T09:00:53;2.90;99.90
15343;DHT22;7771;48.478;8.936;2024-01-15T09:03:20;2.90;99.90
15343;DHT22;7771;48.478;8.936;2024-01-15T09:05:47;3.00;99.90
15343;DHT22;7771;48.478;8.936;2024-01-15T09:08:14;3.00;99.90
15343;DHT22;7771;48.478;8.936;2024-01-15T09:10:41;3.00;99.90
15343;DHT22;7771;48.478;8.936;2024-01-15T09:13:08;3.00;99.90
15343;DHT22;7771;48.478;8.936;2024-01-15T09:20:31;3.10;99.90
15343;DHT22;7771;48.478;8.936;2024-01-15T09:23:00;3.20;99.90
15343;DHT22;7771;48.478;8.936;2024-01-15T09:25:26;3.20;99.90
15343;DHT22;7771;48.478;8.936;2024-01-15T09:27:54;3.20;99.90
15343;DHT22;7771;48.478;8.936;2024-01-15T09:30:22;3.30;99.90
15343;DHT22;7771;48.478;8.936;2024-01-15T09:32:48;3.30;99.90
15343;DHT22;7771;48.478;8.936;2024-01-15T09:35:16;3.40;99.90
15343;DHT22;7771;48.478;8.936;2024-01-15T09:37:43;3.30;99.90
15343;DHT22;7771;48.478;8.936;2024-01-15T09:40:12;3.50;99.90
15343;DHT22;7771;48.478;8.936;2024-01-15T09:42:37;3.50;99.90
15343;DHT22;7771;48.478;8.936;2024-01-15T09:45:05;3.60;99.90
15343;DHT22;7771;48.478;8.936;2024-01-15T09:47:32;3.70;99.90
15343;DHT22;7771;48.478;8.936;2024-01-15T09:54:58;3.80;99.90
15343;DHT22;7771;48.478;8.936;2024-01-15T09:57:24;3.90;99.90
15343;DHT22;7771;48.478;8.936;2024-01-15T09:59:51;3.90;99.90
15343;DHT22;7771;48.478;8.936;2024-01-15T10:04:46;4.00;99.90
15343;DHT22;7771;48.478;8.936;2024-01-15T10:07:15;4.00;99.90
15343;DHT22;7771;48.478;8.936;2024-01-15T10:09:41;4.10;99.90
15343;DHT22;7771;48.478;8.936;2024-01-15T10:12:08;4.10;99.90
15343;DHT22;7771;48.478;8.936;2024-01-15T10:14:36;4.10;99.90
15343;DHT22;7771;48.478;8.936;2024-01-15T10:19:41;4.20;99.90
15343;DHT22;7771;48.478;8.936;2024-01-15T10:27:06;4.20;99.90
15343;DHT22;7771;48.478;8.936;2024-01-15T10:29:32;4.30;99.90
15343;DHT22;7771;48.478;8.936;2024-01-15T10:36:54;4.30;99.90
15343;DHT22;7771;48.478;8.936;2024-01-15T10:39:22;4.30;99.90
15343;DHT22;7771;48.478;8.936;2024-01-15T10:41:50;4.40;99.90
15343;DHT22;7771;48.478;8.936;2024-01-15T10:44:18;4.40;99.90
15343;DHT22;7771;48.478;8.936;2024-01-15T10:46:45;4.40;99.90
15343;DHT22;7771;48.478;8.936;2024-01-15T10:49:12;4.40;99.90
15343;DHT22;7771;48.478;8.936;2024-01-15T10:51:41;4.40;99.90
15343;DHT22;7771;48.478;8.936;2024-01-15T10:54:11;4.40;99.90
15343;DHT22;7771;48.478;8.936;2024-01-15T10:56:38;4.40;99.90
15343;DHT22;7771;48.478;8.936;2024-01-15T10:59:06;4.40;99.90
15343;DHT22;7771;48.478;8.936;2024-01-15T11:04:01;4.40;99.90
15343;DHT22;7771;48.478;8.936;2024-01-15T11:06:28;4.30;99.90
15343;DHT22;7771;48.478;8.936;2024-01-15T11:08:55;4.30;99.90
15343;DHT22;7771;48.478;8.936;2024-01-15T11:11:22;4.30;99.90
15343;DHT22;7771;48.478;8.936;2024-01-15T11:13:50;4.30;99.90
15343;DHT22;7771;48.478;8.936;2024-01-15T11:16:19;4.20;99.90
15343;DHT22;7771;48.478;8.936;2024-01-15T11:21:20;4.30;99.90
15343;DHT22;7771;48.478;8.936;2024-01-15T11:23:49;4.20;99.90
15343;DHT22;7771;48.478;8.936;2024-01-15T11:26:27;4.20;99.90
15343;DHT22;7771;48.478;8.936;2024-01-15T11:31:29;4.10;99.90
15343;DHT22;7771;48.478;8.936;2024-01-15T11:33:55;4.10;99.90
15343;DHT22;7771;48.478;8.936;2024-01-15T11:37:01;4.10;99.90
15343;DHT22;7771;48.478;8.936;2024-01-15T11:39:42;4.00;99.90
15343;DHT22;7771;48.478;8.936;2024-01-15T11:42:11;3.90;99.90
15343;DHT22;7771;48.478;8.936;2024-01-15T11:44:38;4.00;99.90
15343;DHT22;7771;48.478;8.936;2024-01-15T11:47:07;4.00;99.90
15343;DHT22;7771;48.478;8.936;2024-01-15T11:52:11;4.00;99.90
15343;DHT22;7771;48.478;8.936;2024-01-15T11:54:38;4.00;99.90
15343;DHT22;7771;48.478;8.936;2024-01-15T11:57:09;4.10;99.90
15343;DHT22;7771;48.478;8.936;2024-01-15T11:59:34;4.10;99.90
15343;DHT22;7771;48.478;8.936;2024-01-15T12:02:01;4.10;99.90
15343;DHT22;7771;48.478;8.936;2024-01-15T12:04:28;4.10;99.90
15343;DHT22;7771;48.478;8.936;2024-01-15T12:06:56;4.10;99.90
15343;DHT22;7771;48.478;8.936;2024-01-15T12:09:23;4.20;99.90
15343;DHT22;7771;48.478;8.936;2024-01-15T12:11:53;4.20;99.90
15343;DHT22;7771;48.478;8.936;2024-01-15T12:14:18;4.20;99.90
15343;DHT22;7771;48.478;8.936;2024-01-15T12:16:45;4.10;99.90
15343;DHT22;7771;48.478;8.936;2024-01-15T12:19:13;4.20;99.90
15343;DHT22;7771;48.478;8.936;2024-01-15T12:24:08;4.10;99.90
15343;DHT22;7771;48.478;8.936;2024-01-15T12:26:35;4.10;99.90
15343;DHT22;7771;48.478;8.936;2024-01-15T12:31:30;4.10;99.90
15343;DHT22;7771;48.478;8.936;2024-01-15T12:33:57;4.20;99.90
15343;DHT22;7771;48.478;8.936;2024-01-15T12:36:25;4.10;99.90
15343;DHT22;7771;48.478;8.936;2024-01-15T12:41:19;4.10;99.90
15343;DHT22;7771;48.478;8.936;2024-01-15T12:43:47;4.10;99.90
15343;DHT22;7771;48.478;8.936;2024-01-15T12:46:14;4.20;99.90
15343;DHT22;7771;48.478;8.936;2024-01-15T12:53:37;4.10;99.90
15343;DHT22;7771;48.478;8.936;2024-01-15T12:56:05;4.00;99.90
15343;DHT22;7771;48.478;8.936;2024-01-15T12:58:32;4.00;99.90
15343;DHT22;7771;48.478;8.936;2024-01-15T13:00:59;4.00;99.90
15343;DHT22;7771;48.478;8.936;2024-01-15T13:13:18;4.00;99.90
15343;DHT22;7771;48.478;8.936;2024-01-15T13:15:46;4.00;99.90
15343;DHT22;7771;48.478;8.936;2024-01-15T13:18:14;3.90;99.90
15343;DHT22;7771;48.478;8.936;2024-01-15T13:20:42;3.90;99.90
15343;DHT22;7771;48.478;8.936;2024-01-15T13:23:09;3.90;99.90
15343;DHT22;7771;48.478;8.936;2024-01-15T13:25:36;3.90;99.90
15343;DHT22;7771;48.478;8.936;2024-01-15T13:28:04;3.90;99.90
15343;DHT22;7771;48.478;8.936;2024-01-15T13:30:30;3.90;99.90
15343;DHT22;7771;48.478;8.936;2024-01-15T13:32:59;3.80;99.90
15343;DHT22;7771;48.478;8.936;2024-01-15T13:35:27;3.80;99.90
15343;DHT22;7771;48.478;8.936;2024-01-15T13:37:53;3.70;99.90
15343;DHT22;7771;48.478;8.936;2024-01-15T13:40:21;3.70;99.90
15343;DHT22;7771;48.478;8.936;2024-01-15T13:42:47;3.70;99.90
15343;DHT22;7771;48.478;8.936;2024-01-15T13:45:14;3.70;99.90
15343;DHT22;7771;48.478;8.936;2024-01-15T13:47:42;3.70;99.90
15343;DHT22;7771;48.478;8.936;2024-01-15T13:50:10;3.70;99.90
15343;DHT22;7771;48.478;8.936;2024-01-15T13:52:37;3.70;99.90
15343;DHT22;7771;48.478;8.936;2024-01-15T13:57:33;3.60;99.90
15343;DHT22;7771;48.478;8.936;2024-01-15T14:00:01;3.60;99.90
15343;DHT22;7771;48.478;8.936;2024-01-15T14:02:27;3.60;99.90
15343;DHT22;7771;48.478;8.936;2024-01-15T14:09:50;3.50;99.90
15343;DHT22;7771;48.478;8.936;2024-01-15T14:12:17;3.50;99.90
15343;DHT22;7771;48.478;8.936;2024-01-15T14:14:44;3.50;99.90
15343;DHT22;7771;48.478;8.936;2024-01-15T14:17:11;3.50;99.90
15343;DHT22;7771;48.478;8.936;2024-01-15T14:19:39;3.40;99.90
15343;DHT22;7771;48.478;8.936;2024-01-15T14:22:06;3.40;99.90
15343;DHT22;7771;48.478;8.936;2024-01-15T14:27:02;3.40;99.90
15343;DHT22;7771;48.478;8.936;2024-01-15T14:31:58;3.40;99.90
15343;DHT22;7771;48.478;8.936;2024-01-15T14:34:26;3.40;99.90
15343;DHT22;7771;48.478;8.936;2024-01-15T14:39:22;3.40;99.90
15343;DHT22;7771;48.478;8.936;2024-01-15T14:44:16;3.40;99.90
15343;DHT22;7771;48.478;8.936;2024-01-15T14:46:44;3.40;99.90
15343;DHT22;7771;48.478;8.936;2024-01-15T14:49:11;3.30;99.90
15343;DHT22;7771;48.478;8.936;2024-01-15T14:54:07;3.30;99.90
15343;DHT22;7771;48.478;8.936;2024-01-15T14:59:20;3.40;99.90
15343;DHT22;7771;48.478;8.936;2024-01-15T15:01:47;3.30;99.90
15343;DHT22;7771;48.478;8.936;2024-01-15T15:04:13;3.30;99.90
15343;DHT22;7771;48.478;8.936;2024-01-15T15:06:40;3.30;99.90
15343;DHT22;7771;48.478;8.936;2024-01-15T15:09:07;3.30;99.90
15343;DHT22;7771;48.478;8.936;2024-01-15T15:11:35;3.30;99.90
15343;DHT22;7771;48.478;8.936;2024-01-15T15:14:02;3.30;99.90
15343;DHT22;7771;48.478;8.936;2024-01-15T15:16:29;3.20;99.90
15343;DHT22;7771;48.478;8.936;2024-01-15T15:18:57;3.20;99.90
15343;DHT22;7771;48.478;8.936;2024-01-15T15:21:25;3.20;99.90
15343;DHT22;7771;48.478;8.936;2024-01-15T15:23:51;3.20;99.90
15343;DHT22;7771;48.478;8.936;2024-01-15T15:28:46;3.20;99.90
15343;DHT22;7771;48.478;8.936;2024-01-15T15:31:14;3.10;99.90
15343;DHT22;7771;48.478;8.936;2024-01-15T15:33:40;3.10;99.90
15343;DHT22;7771;48.478;8.936;2024-01-15T15:36:08;3.00;99.90
15343;DHT22;7771;48.478;8.936;2024-01-15T15:38:35;3.00;99.90
15343;DHT22;7771;48.478;8.936;2024-01-15T15:43:30;2.90;99.90
15343;DHT22;7771;48.478;8.936;2024-01-15T15:45:56;3.00;99.90
15343;DHT22;7771;48.478;8.936;2024-01-15T15:48:24;2.90;99.90
15343;DHT22;7771;48.478;8.936;2024-01-15T15:53:19;2.80;99.90
15343;DHT22;7771;48.478;8.936;2024-01-15T15:55:46;2.90;99.90
15343;DHT22;7771;48.478;8.936;2024-01-15T15:58:12;2.90;99.90
15343;DHT22;7771;48.478;8.936;2024-01-15T16:00:40;2.90;99.90
15343;DHT22;7771;48.478;8.936;2024-01-15T16:03:07;2.90;99.90
15343;DHT22;7771;48.478;8.936;2024-01-15T16:05:34;2.90;99.90
15343;DHT22;7771;48.478;8.936;2024-01-15T16:08:01;2.80;99.90
15343;DHT22;7771;48.478;8.936;2024-01-15T16:10:28;2.80;99.90
15343;DHT22;7771;48.478;8.936;2024-01-15T16:12:55;2.80;99.90
15343;DHT22;7771;48.478;8.936;2024-01-15T16:15:21;2.80;99.90
15343;DHT22;7771;48.478;8.936;2024-01-15T16:17:50;2.80;99.90
15343;DHT22;7771;48.478;8.936;2024-01-15T16:20:17;2.80;99.90
15343;DHT22;7771;48.478;8.936;2024-01-15T16:25:13;2.80;99.90
15343;DHT22;7771;48.478;8.936;2024-01-15T16:27:39;2.80;99.90
15343;DHT22;7771;48.478;8.936;2024-01-15T16:30:07;2.70;99.90
15343;DHT22;7771;48.478;8.936;2024-01-15T16:32:35;2.70;99.90
15343;DHT22;7771;48.478;8.936;2024-01-15T16:35:01;2.70;99.90
15343;DHT22;7771;48.478;8.936;2024-01-15T16:37:29;2.70;99.90
15343;DHT22;7771;48.478;8.936;2024-01-15T16:39:55;2.70;99.90
15343;DHT22;7771;48.478;8.936;2024-01-15T16:44:51;2.70;99.90
15343;DHT22;7771;48.478;8.936;2024-01-15T16:47:19;2.80;99.90
15343;DHT22;7771;48.478;8.936;2024-01-15T16:49:46;2.70;99.90
15343;DHT22;7771;48.478;8.936;2024-01-15T16:52:13;2.70;99.90
15343;DHT22;7771;48.478;8.936;2024-01-15T16:59:36;2.70;99.90
15343;DHT22;7771;48.478;8.936;2024-01-15T17:02:03;2.70;99.90
15343;DHT22;7771;48.478;8.936;2024-01-15T17:04:30;2.70;99.90
15343;DHT22;7771;48.478;8.936;2024-01-15T17:06:57;2.70;99.90
15343;DHT22;7771;48.478;8.936;2024-01-15T17:09:24;2.70;99.90
15343;DHT22;7771;48.478;8.936;2024-01-15T17:11:51;2.70;99.90
15343;DHT22;7771;48.478;8.936;2024-01-15T17:14:18;2.70;99.90
15343;DHT22;7771;48.478;8.936;2024-01-15T17:16:46;2.70;99.90
15343;DHT22;7771;48.478;8.936;2024-01-15T17:19:12;2.70;99.90
15343;DHT22;7771;48.478;8.936;2024-01-15T17:21:40;2.70;99.90
15343;DHT22;7771;48.478;8.936;2024-01-15T17:24:06;2.70;99.90
15343;DHT22;7771;48.478;8.936;2024-01-15T17:26:34;2.70;99.90
15343;DHT22;7771;48.478;8.936;2024-01-15T17:29:00;2.70;99.90
15343;DHT22;7771;48.478;8.936;2024-01-15T17:31:28;2.70;99.90
15343;DHT22;7771;48.478;8.936;2024-01-15T17:38:50;2.70;99.90
15343;DHT22;7771;48.478;8.936;2024-01-15T17:41:17;2.70;99.90
15343;DHT22;7771;48.478;8.936;2024-01-15T17:43:45;2.70;99.90
15343;DHT22;7771;48.478;8.936;2024-01-15T17:46:11;2.70;99.90
15343;DHT22;7771;48.478;8.936;2024-01-15T17:48:38;2.70;99.90
15343;DHT22;7771;48.478;8.936;2024-01-15T17:51:05;2.70;99.90
15343;DHT22;7771;48.478;8.936;2024-01-15T17:53:31;2.70;99.90
15343;DHT22;7771;48.478;8.936;2024-01-15T17:56:00;2.70;99.90
15343;DHT22;7771;48.478;8.936;2024-01-15T17:58:27;2.70;99.90
15343;DHT22;7771;48.478;8.936;2024-01-15T18:00:53;2.80;99.90
15343;DHT22;7771;48.478;8.936;2024-01-15T18:03:21;2.70;99.90
15343;DHT22;7771;48.478;8.936;2024-01-15T18:08:17;2.80;99.90
15343;DHT22;7771;48.478;8.936;2024-01-15T18:10:45;2.70;99.90
15343;DHT22;7771;48.478;8.936;2024-01-15T18:13:12;2.70;99.90
15343;DHT22;7771;48.478;8.936;2024-01-15T18:15:39;2.60;99.90
15343;DHT22;7771;48.478;8.936;2024-01-15T18:20:35;2.60;99.90
15343;DHT22;7771;48.478;8.936;2024-01-15T18:25:30;2.60;99.90
15343;DHT22;7771;48.478;8.936;2024-01-15T18:27:57;2.50;99.90
15343;DHT22;7771;48.478;8.936;2024-01-15T18:35:21;2.50;99.90
15343;DHT22;7771;48.478;8.936;2024-01-15T18:37:48;2.40;99.90
15343;DHT22;7771;48.478;8.936;2024-01-15T18:40:16;2.30;99.90
15343;DHT22;7771;48.478;8.936;2024-01-15T18:42:42;2.30;99.90
15343;DHT22;7771;48.478;8.936;2024-01-15T18:47:38;2.20;99.90
15343;DHT22;7771;48.478;8.936;2024-01-15T18:50:07;2.10;99.90
15343;DHT22;7771;48.478;8.936;2024-01-15T18:52:34;2.10;99.90
15343;DHT22;7771;48.478;8.936;2024-01-15T18:55:01;2.10;99.90
15343;DHT22;7771;48.478;8.936;2024-01-15T18:57:29;2.00;99.90
15343;DHT22;7771;48.478;8.936;2024-01-15T18:59:56;2.00;99.90
15343;DHT22;7771;48.478;8.936;2024-01-15T19:02:24;2.00;99.90
15343;DHT22;7771;48.478;8.936;2024-01-15T19:07:20;2.00;99.90
15343;DHT22;7771;48.478;8.936;2024-01-15T19:09:47;2.00;99.90
15343;DHT22;7771;48.478;8.936;2024-01-15T19:12:15;2.10;99.90